Augusto Severo Airport
SBNT : now visible

Airfield :











YOU CAN JOIN US ON...

 
LOGIN :

Register | Disclaimer

   EN    FR    IT 

 









Legend :    VFR   Marginal VFR   IFR   Intensive IFR   Very Intensive IFR
Visi :
Ceiling :
>= 8 km
>= 3000ft
5 to 8 km
1000 to 3000 ft
1500m to 5 km
500 to 1000 ft
800 to 1500m
200 to 500 ft
< 800m
< 200 ft
Symbols :   Thunderstorms  Fog  Heavy snow  Heavy precipitations  Wind > 20 kt






- Airport Elevation : 169 ft
- IATA code : NAT


SBNT - Augusto Severo

CURRENT METAR :
  • 010800Z 19004KT 9999 FEW023 BKN040 23/21 Q1012

EXPIRED METARs :
  • 010700Z 20005KT 9999 SCT021 BKN035 24/22 Q1011
  • 010600Z 22004KT 9999 SCT021 BKN035 24/22 Q1011

TAF TAF SBNT
Valid from the 01 at 06:00 until the 01 at 18:00 UTC


010230Z 0106/0118 18007KT 9999 SCT020 TN24/0108Z TX31/0117Z
BECMG 0110/0111 13015KT 8000 BKN017 FEW025TCU
BECMG 0113/0115 13020KT 9999 BKN025 RMK PGB
SBRE FIR / South America



MET'MAP, your aeronautical weather chart ! - Copyright ORBIFLY December 2007 - Disclaimer

ORBIFLY MET'MAP TEAM :

Programming & Development : Alexandra Zaïnal
Concept & original design : Baudouin d'Aumeries
Assistance for programming : Marc-Olivier Méhu
Technical & hardware support : Manuel Goepfert

Contact : metmap@orbifly.com




SOURCES & CREDITS :

   NOAA       Earth
Advisory